createdAt,value
2023-05-04T00:01:05.614Z,81.62
2023-05-04T00:03:32.697Z,81.97
2023-05-04T00:05:59.499Z,81.61
2023-05-04T00:08:26.418Z,82.58
2023-05-04T00:10:54.734Z,82.12
2023-05-04T00:13:21.925Z,82.17
2023-05-04T00:15:48.978Z,82.11
2023-05-04T00:18:15.793Z,82.58
2023-05-04T00:20:42.579Z,82.89
2023-05-04T00:23:09.404Z,82.87
2023-05-04T00:25:36.282Z,83.71
2023-05-04T00:28:03.092Z,83.85
2023-05-04T00:30:29.929Z,84.26
2023-05-04T00:32:56.782Z,84.46
2023-05-04T00:35:23.542Z,84.84
2023-05-04T00:37:50.350Z,85.66
2023-05-04T00:40:17.232Z,85.55
2023-05-04T00:42:44.050Z,85.43
2023-05-04T00:45:10.987Z,84.81
2023-05-04T00:47:37.927Z,85.13
2023-05-04T00:50:05.588Z,85.24
2023-05-04T00:52:32.740Z,85.71
2023-05-04T00:55:00.890Z,86.18
2023-05-04T00:57:27.789Z,86.16
2023-05-04T00:59:54.815Z,86.17
2023-05-04T01:02:22.053Z,86.38
2023-05-04T01:04:52.809Z,86.60
2023-05-04T01:07:27.125Z,86.38
2023-05-04T01:09:59.349Z,86.37
2023-05-04T01:12:30.493Z,86.54
2023-05-04T01:14:57.451Z,86.80
2023-05-04T01:17:24.307Z,86.62
2023-05-04T01:19:54.312Z,87.32
2023-05-04T01:22:22.140Z,87.14
2023-05-04T01:24:49.211Z,87.10
2023-05-04T01:27:23.542Z,87.65
2023-05-04T01:29:54.298Z,87.48
2023-05-04T01:32:21.960Z,88.02
2023-05-04T01:34:49.081Z,87.89
2023-05-04T01:37:16.407Z,87.91
2023-05-04T01:39:43.336Z,87.89
2023-05-04T01:42:10.170Z,88.25
2023-05-04T01:44:37.046Z,88.47
2023-05-04T01:47:03.942Z,87.82
2023-05-04T01:49:30.816Z,88.08
2023-05-04T01:51:57.712Z,88.09
2023-05-04T01:54:24.510Z,88.00
2023-05-04T01:56:51.316Z,88.09
2023-05-04T01:59:21.215Z,88.34
2023-05-04T02:01:48.152Z,88.51
2023-05-04T02:04:14.992Z,88.04
2023-05-04T02:06:41.852Z,87.93
2023-05-04T02:09:08.678Z,87.81
2023-05-04T02:11:35.822Z,88.03
2023-05-04T02:14:02.687Z,88.01
2023-05-04T02:16:29.556Z,88.33
2023-05-04T02:18:56.650Z,88.48
2023-05-04T02:21:23.602Z,88.70
2023-05-04T02:23:50.622Z,88.70
2023-05-04T02:26:17.457Z,88.02
2023-05-04T02:28:44.412Z,88.16
2023-05-04T02:31:11.276Z,88.56
2023-05-04T02:33:38.095Z,88.51
2023-05-04T02:36:05.394Z,88.67
2023-05-04T02:38:32.187Z,88.72
2023-05-04T02:40:58.981Z,89.36
2023-05-04T02:43:25.757Z,88.97
2023-05-04T02:45:52.675Z,88.79
2023-05-04T02:48:19.650Z,89.30
2023-05-04T02:50:46.818Z,89.44
2023-05-04T02:53:13.652Z,88.70
2023-05-04T02:55:40.658Z,89.02
2023-05-04T02:58:07.772Z,88.99
2023-05-04T03:00:34.711Z,89.48
2023-05-04T03:03:01.936Z,89.64
2023-05-04T03:05:29.213Z,89.66
2023-05-04T03:07:57.238Z,89.91
2023-05-04T03:10:24.148Z,90.64
2023-05-04T03:12:51.012Z,89.01
2023-05-04T03:15:18.027Z,89.07
2023-05-04T03:17:45.090Z,88.99
2023-05-04T03:20:13.401Z,88.82
2023-05-04T03:22:40.193Z,88.98
2023-05-04T03:25:08.045Z,89.10
2023-05-04T03:27:34.827Z,89.62
2023-05-04T03:30:01.662Z,88.86
2023-05-04T03:32:28.554Z,88.94
2023-05-04T03:34:55.468Z,89.28
2023-05-04T03:37:22.290Z,89.08
2023-05-04T03:39:49.070Z,89.41
2023-05-04T03:42:15.845Z,89.41
2023-05-04T03:44:42.730Z,89.24
2023-05-04T03:47:09.550Z,89.51
2023-05-04T03:49:36.423Z,89.56
2023-05-04T03:52:03.283Z,89.82
2023-05-04T03:54:30.129Z,89.88
2023-05-04T03:56:56.954Z,90.03
2023-05-04T03:59:23.714Z,89.64
2023-05-04T04:01:50.810Z,90.00
2023-05-04T04:04:17.727Z,90.03
2023-05-04T04:06:45.230Z,90.22
2023-05-04T04:09:12.024Z,89.96
2023-05-04T04:11:38.800Z,90.15
2023-05-04T04:14:05.940Z,90.24
2023-05-04T04:16:32.771Z,90.40
2023-05-04T04:18:59.663Z,90.46
2023-05-04T04:21:26.740Z,90.21
2023-05-04T04:23:53.552Z,90.31
2023-05-04T04:26:21.069Z,90.34
2023-05-04T04:28:50.829Z,90.30
2023-05-04T04:31:19.164Z,89.83
2023-05-04T04:33:47.623Z,89.93
2023-05-04T04:36:17.054Z,89.46
2023-05-04T04:38:44.433Z,89.59
2023-05-04T04:41:11.302Z,89.55
2023-05-04T04:43:38.197Z,89.41
2023-05-04T04:46:05.215Z,89.87
2023-05-04T04:48:32.031Z,89.54
2023-05-04T04:50:59.390Z,89.53
2023-05-04T04:53:26.310Z,89.91
2023-05-04T04:55:54.360Z,89.89
2023-05-04T04:58:21.273Z,90.20
2023-05-04T05:00:48.066Z,90.37
2023-05-04T05:03:15.048Z,90.45
2023-05-04T05:05:41.928Z,90.11
2023-05-04T05:08:08.705Z,88.86
2023-05-04T05:10:38.684Z,88.86
2023-05-04T05:13:06.791Z,88.17
2023-05-04T05:15:33.649Z,88.25
2023-05-04T05:18:00.703Z,88.38
2023-05-04T05:20:27.857Z,88.99
2023-05-04T05:22:54.767Z,89.00
2023-05-04T05:25:21.631Z,87.79
2023-05-04T05:27:48.550Z,87.65
2023-05-04T05:30:15.573Z,88.06
2023-05-04T05:32:42.387Z,88.38
2023-05-04T05:35:09.827Z,87.41
2023-05-04T05:37:36.717Z,87.85
2023-05-04T05:40:08.200Z,87.30
2023-05-04T05:42:38.437Z,86.88
2023-05-04T05:45:05.647Z,86.70
2023-05-04T05:47:32.446Z,86.88
2023-05-04T05:49:59.396Z,86.67
2023-05-04T05:52:26.266Z,85.98
2023-05-04T05:54:53.069Z,85.92
2023-05-04T05:57:21.004Z,85.17
2023-05-04T05:59:47.885Z,84.79
2023-05-04T06:02:15.257Z,84.73
2023-05-04T06:04:42.538Z,84.38
2023-05-04T06:07:09.499Z,85.05
2023-05-04T06:09:36.881Z,84.44
2023-05-04T06:12:05.245Z,84.36
2023-05-04T06:14:32.067Z,84.04
2023-05-04T06:16:59.111Z,83.49
2023-05-04T06:19:26.039Z,82.79
2023-05-04T06:21:53.426Z,82.88
2023-05-04T06:24:22.025Z,82.05
2023-05-04T06:26:48.921Z,81.28
2023-05-04T06:29:15.935Z,80.83
2023-05-04T06:31:43.727Z,80.45
2023-05-04T06:34:12.022Z,79.46
2023-05-04T06:36:39.286Z,78.50
2023-05-04T06:39:06.181Z,77.40
2023-05-04T06:41:33.198Z,77.97
2023-05-04T06:44:01.094Z,77.33
2023-05-04T06:46:28.239Z,77.05
2023-05-04T06:48:55.376Z,77.00
2023-05-04T06:51:22.510Z,75.13
2023-05-04T06:53:49.599Z,73.36
2023-05-04T06:56:17.391Z,72.89
2023-05-04T06:58:44.401Z,72.69
2023-05-04T07:01:12.398Z,72.82
2023-05-04T07:03:50.711Z,73.00
2023-05-04T07:06:17.803Z,72.84
2023-05-04T07:08:45.148Z,72.90
2023-05-04T07:11:12.408Z,71.84
2023-05-04T07:13:39.929Z,71.36
2023-05-04T07:16:08.126Z,71.42
2023-05-04T07:18:35.360Z,72.09
2023-05-04T07:21:21.687Z,69.85
2023-05-04T07:23:49.972Z,68.63
2023-05-04T07:26:17.338Z,68.95
2023-05-04T07:28:44.520Z,69.36
2023-05-04T07:31:13.317Z,69.80
2023-05-04T07:33:40.838Z,70.15
2023-05-04T07:36:08.501Z,70.77
2023-05-04T07:38:35.889Z,71.02
2023-05-04T07:41:02.936Z,71.81
2023-05-04T07:43:29.890Z,72.17
2023-05-04T07:45:57.082Z,72.37
2023-05-04T07:48:26.159Z,72.63
2023-05-04T07:50:54.296Z,72.66
2023-05-04T07:53:21.765Z,72.76
2023-05-04T07:55:48.910Z,72.53
2023-05-04T07:58:17.014Z,72.49
2023-05-04T08:00:46.656Z,71.41
2023-05-04T08:03:13.753Z,70.51
2023-05-04T08:05:40.960Z,69.01
2023-05-04T08:08:08.945Z,68.56
2023-05-04T08:10:39.044Z,66.59
2023-05-04T08:13:06.177Z,65.87
2023-05-04T08:15:33.464Z,64.31
2023-05-04T08:18:00.498Z,63.63
2023-05-04T08:20:29.597Z,64.10
2023-05-04T08:22:56.647Z,64.69
2023-05-04T08:25:23.577Z,65.80
2023-05-04T08:27:51.789Z,66.12
2023-05-04T08:30:19.000Z,65.96
2023-05-04T08:32:46.000Z,65.88
2023-05-04T08:35:13.679Z,65.87
2023-05-04T08:37:40.760Z,65.90
2023-05-04T08:40:08.888Z,65.64
2023-05-04T08:42:35.821Z,65.63
2023-05-04T08:45:03.016Z,65.59
2023-05-04T08:47:30.178Z,64.97
2023-05-04T08:49:57.298Z,64.79
2023-05-04T08:52:25.841Z,63.77
2023-05-04T08:54:55.794Z,63.81
2023-05-04T08:57:24.504Z,63.82
2023-05-04T08:59:58.338Z,63.62
2023-05-04T09:02:25.589Z,63.31
2023-05-04T09:04:53.252Z,63.45
2023-05-04T09:07:21.213Z,62.38
2023-05-04T09:09:58.081Z,62.30
2023-05-04T09:12:27.221Z,61.76
2023-05-04T09:14:54.065Z,61.79
2023-05-04T09:17:26.145Z,60.90
2023-05-04T09:20:00.707Z,60.57
2023-05-04T09:22:28.902Z,60.11
2023-05-04T09:25:06.900Z,60.54
2023-05-04T09:27:34.298Z,58.91
2023-05-04T09:30:01.760Z,58.88
2023-05-04T09:32:29.216Z,59.54
2023-05-04T09:34:59.316Z,59.60
2023-05-04T09:37:26.387Z,58.97
2023-05-04T09:40:00.605Z,58.91
2023-05-04T09:42:29.202Z,58.98
2023-05-04T09:45:05.194Z,58.69
2023-05-04T09:47:40.759Z,58.79
2023-05-04T09:50:12.556Z,58.73
2023-05-04T09:52:40.946Z,59.04
2023-05-04T09:55:08.500Z,58.68
2023-05-04T09:57:36.937Z,58.80
2023-05-04T10:00:10.658Z,58.55
2023-05-04T10:02:38.565Z,58.38
2023-05-04T10:05:07.488Z,58.08
2023-05-04T10:07:35.306Z,58.25
2023-05-04T10:10:02.273Z,57.79
2023-05-04T10:12:29.451Z,57.83
2023-05-04T10:14:57.496Z,57.75
2023-05-04T10:17:31.446Z,57.17
2023-05-04T10:19:58.858Z,56.45
2023-05-04T10:22:29.329Z,56.12
2023-05-04T10:25:06.475Z,55.69
2023-05-04T10:27:39.914Z,55.91
2023-05-04T10:30:08.964Z,55.49
2023-05-04T10:32:40.243Z,55.28
2023-05-04T10:35:08.391Z,55.61
2023-05-04T10:37:38.059Z,54.95
2023-05-04T10:40:16.142Z,54.74
2023-05-04T10:42:44.065Z,54.81
2023-05-04T10:45:11.411Z,55.09
2023-05-04T10:47:41.210Z,55.27
2023-05-04T10:50:38.366Z,55.13
2023-05-04T10:53:05.530Z,54.81
2023-05-04T10:55:39.453Z,54.67
2023-05-04T10:58:06.624Z,54.05
2023-05-04T11:00:42.493Z,53.84
2023-05-04T11:03:12.324Z,53.82
2023-05-04T11:05:43.871Z,53.98
2023-05-04T11:08:19.863Z,53.30
2023-05-04T11:10:49.786Z,53.35
2023-05-04T11:13:17.317Z,52.93
2023-05-04T11:15:46.173Z,52.97
2023-05-04T11:18:13.371Z,53.27
2023-05-04T11:20:40.911Z,53.68
2023-05-04T11:23:10.926Z,53.27
2023-05-04T11:25:38.445Z,53.35
2023-05-04T11:28:05.732Z,53.84
2023-05-04T11:30:34.707Z,53.43
2023-05-04T11:33:03.213Z,53.29
2023-05-04T11:35:30.626Z,53.18
2023-05-04T11:37:57.740Z,52.85
2023-05-04T11:40:26.017Z,52.62
2023-05-04T11:42:56.141Z,52.25
2023-05-04T11:45:25.376Z,51.53
2023-05-04T11:47:53.129Z,50.79
2023-05-04T11:50:21.280Z,50.64
2023-05-04T11:52:49.405Z,50.89
2023-05-04T11:55:25.865Z,51.09
2023-05-04T11:58:00.919Z,50.99
2023-05-04T12:00:36.414Z,51.32
2023-05-04T12:03:04.061Z,51.01
2023-05-04T12:05:32.185Z,51.48
2023-05-04T12:07:59.306Z,51.76
2023-05-04T12:10:27.466Z,51.49
2023-05-04T12:12:54.804Z,50.64
2023-05-04T12:15:30.482Z,49.90
2023-05-04T12:17:58.474Z,50.39
2023-05-04T12:20:29.314Z,50.09
2023-05-04T12:22:56.768Z,50.53
2023-05-04T12:25:24.366Z,51.34
2023-05-04T12:27:51.957Z,51.14
2023-05-04T12:30:19.138Z,51.21
2023-05-04T12:32:46.495Z,50.35
2023-05-04T12:35:13.594Z,50.70
2023-05-04T12:37:40.610Z,50.58
2023-05-04T12:40:21.100Z,50.23
2023-05-04T12:42:55.244Z,50.15
2023-05-04T12:45:23.051Z,49.84
2023-05-04T12:47:50.246Z,49.86
2023-05-04T12:50:17.689Z,50.29
2023-05-04T12:52:45.035Z,49.90
2023-05-04T12:55:12.145Z,50.48
2023-05-04T12:57:40.041Z,50.00
2023-05-04T13:00:10.410Z,50.04
2023-05-04T13:02:38.203Z,49.70
2023-05-04T13:05:05.959Z,50.25
2023-05-04T13:07:35.303Z,50.80
2023-05-04T13:10:11.620Z,51.03
2023-05-04T13:12:38.920Z,51.18
2023-05-04T13:15:07.036Z,51.98
2023-05-04T13:17:35.336Z,52.51
2023-05-04T13:20:09.645Z,53.17
2023-05-04T13:22:36.925Z,53.55
2023-05-04T13:25:04.238Z,54.00
2023-05-04T13:27:31.576Z,54.03
2023-05-04T13:30:04.092Z,54.29
2023-05-04T13:32:31.892Z,54.29
2023-05-04T13:34:59.098Z,54.44
2023-05-04T13:37:26.349Z,55.07
2023-05-04T13:40:02.170Z,55.35
2023-05-04T13:42:30.816Z,55.71
2023-05-04T13:44:57.969Z,56.21
2023-05-04T13:47:25.601Z,56.14
2023-05-04T13:50:01.088Z,56.42
2023-05-04T13:52:28.475Z,56.72
2023-05-04T13:54:55.787Z,57.11
2023-05-04T13:57:23.066Z,57.27
2023-05-04T14:00:06.377Z,57.15
2023-05-04T14:02:42.349Z,57.80
2023-05-04T14:05:10.397Z,57.52
2023-05-04T14:07:38.047Z,57.58
2023-05-04T14:10:06.592Z,57.67
2023-05-04T14:12:33.895Z,57.87
2023-05-04T14:15:02.034Z,58.10
2023-05-04T14:17:29.211Z,58.82
2023-05-04T14:20:00.835Z,58.89
2023-05-04T14:22:28.626Z,58.86
2023-05-04T14:24:55.738Z,58.61
2023-05-04T14:27:23.206Z,59.25
2023-05-04T14:29:53.292Z,59.21
2023-05-04T14:32:22.614Z,59.12
2023-05-04T14:34:50.180Z,59.32
2023-05-04T14:37:17.234Z,59.34
2023-05-04T14:39:53.575Z,58.99
2023-05-04T14:42:21.012Z,59.40
2023-05-04T14:44:48.650Z,59.65
2023-05-04T14:47:18.344Z,59.93
2023-05-04T14:49:50.731Z,59.91
2023-05-04T14:52:19.913Z,59.51
2023-05-04T14:54:47.127Z,59.73
2023-05-04T14:57:14.240Z,60.14
2023-05-04T14:59:42.422Z,60.47
2023-05-04T15:02:09.702Z,60.25
2023-05-04T15:04:37.419Z,60.41
2023-05-04T15:07:06.093Z,60.43
2023-05-04T15:09:33.318Z,60.47
2023-05-04T15:12:00.993Z,60.74
2023-05-04T15:14:28.356Z,60.79
2023-05-04T15:16:55.488Z,60.60
2023-05-04T15:19:23.714Z,60.14
2023-05-04T15:21:50.985Z,60.45
2023-05-04T15:24:19.111Z,60.19
2023-05-04T15:26:46.604Z,60.78
2023-05-04T15:29:14.093Z,61.49
2023-05-04T15:31:44.477Z,61.53
2023-05-04T15:46:32.820Z,60.40
2023-05-04T15:49:00.598Z,60.81
2023-05-04T15:51:31.308Z,61.17
2023-05-04T15:53:59.484Z,62.10
2023-05-04T15:56:27.451Z,62.07
2023-05-04T15:58:55.327Z,62.22
2023-05-04T16:01:23.203Z,61.98
2023-05-04T16:03:51.200Z,61.75
2023-05-04T16:06:18.925Z,62.09
2023-05-04T16:08:46.734Z,62.78
2023-05-04T16:11:14.616Z,63.30
2023-05-04T16:13:42.200Z,63.35
2023-05-04T16:16:10.483Z,63.21
2023-05-04T16:18:38.704Z,63.43
2023-05-04T16:21:06.629Z,63.41
2023-05-04T16:23:34.209Z,64.02
2023-05-04T16:26:02.042Z,64.36
2023-05-04T16:28:29.889Z,64.68
2023-05-04T16:30:58.886Z,64.66
2023-05-04T16:33:27.766Z,64.92
2023-05-04T16:35:55.808Z,64.87
2023-05-04T16:38:23.553Z,64.79
2023-05-04T16:40:51.214Z,63.94
2023-05-04T16:43:18.995Z,64.32
2023-05-04T16:45:46.885Z,64.14
2023-05-04T16:48:14.854Z,64.16
2023-05-04T16:50:43.026Z,64.51
2023-05-04T16:53:12.097Z,64.14
2023-05-04T16:55:41.332Z,64.24
2023-05-04T16:58:09.286Z,64.05
2023-05-04T17:00:37.296Z,64.40
2023-05-04T17:03:05.660Z,64.31
2023-05-04T17:05:33.560Z,64.75
2023-05-04T17:08:01.567Z,65.22
2023-05-04T17:10:29.867Z,65.48
2023-05-04T17:12:58.495Z,65.52
2023-05-04T17:15:27.815Z,65.56
2023-05-04T17:17:57.174Z,65.35
2023-05-04T17:20:29.413Z,64.90
2023-05-04T17:23:00.315Z,64.92
2023-05-04T17:25:28.473Z,64.01
2023-05-04T17:27:56.221Z,63.80
2023-05-04T17:30:24.636Z,63.89
2023-05-04T17:32:54.808Z,63.96
2023-05-04T17:35:26.193Z,63.80
2023-05-04T17:37:57.966Z,64.16
2023-05-04T17:40:28.392Z,64.22
2023-05-04T17:42:57.243Z,64.59
2023-05-04T17:45:25.096Z,64.58
2023-05-04T17:47:53.372Z,64.62
2023-05-04T17:50:21.833Z,65.36
2023-05-04T17:52:53.929Z,64.71
2023-05-04T17:55:24.116Z,64.59
2023-05-04T17:57:54.358Z,65.17
2023-05-04T18:00:23.514Z,65.11
2023-05-04T18:02:52.033Z,65.85
2023-05-04T18:05:20.124Z,66.88
2023-05-04T18:07:48.157Z,67.66
2023-05-04T18:10:15.791Z,67.16
2023-05-04T18:12:43.339Z,66.62
2023-05-04T18:15:11.405Z,66.78
2023-05-04T18:17:39.373Z,67.32
2023-05-04T18:20:09.583Z,67.29
2023-05-04T18:22:37.465Z,68.18
2023-05-04T18:25:05.563Z,68.21
2023-05-04T18:27:34.672Z,68.51
2023-05-04T18:30:03.989Z,68.97
2023-05-04T18:32:31.886Z,69.25
2023-05-04T18:34:59.850Z,69.49
2023-05-04T18:37:32.043Z,70.32
2023-05-04T18:40:00.316Z,70.86
2023-05-04T18:42:28.297Z,71.18
2023-05-04T18:44:56.751Z,71.29
2023-05-04T18:47:27.567Z,71.74
2023-05-04T18:49:56.917Z,71.86
2023-05-04T18:52:24.520Z,72.22
2023-05-04T18:54:52.619Z,72.97
2023-05-04T18:57:20.192Z,73.16
2023-05-04T18:59:47.880Z,73.41
2023-05-04T19:02:15.955Z,73.88
2023-05-04T19:04:43.575Z,73.62
2023-05-04T19:07:11.207Z,73.56
2023-05-04T19:09:38.619Z,73.71
2023-05-04T19:12:06.685Z,74.02
2023-05-04T19:14:34.278Z,74.64
2023-05-04T19:17:02.787Z,74.77
2023-05-04T19:19:31.231Z,77.74
2023-05-04T19:21:59.310Z,80.83
2023-05-04T19:24:26.964Z,76.17
2023-05-04T19:26:54.837Z,76.27
2023-05-04T19:29:25.525Z,76.39
2023-05-04T19:31:52.869Z,76.63
2023-05-04T19:34:20.291Z,76.53
2023-05-04T19:36:48.058Z,76.87
2023-05-04T19:39:17.204Z,76.31
2023-05-04T19:41:49.355Z,76.81
2023-05-04T19:44:17.158Z,77.03
2023-05-04T19:46:45.971Z,76.82
2023-05-04T19:49:13.906Z,76.73
2023-05-04T19:51:41.320Z,77.16
2023-05-04T19:54:11.235Z,77.10
2023-05-04T19:56:42.365Z,77.86
2023-05-04T19:59:09.695Z,77.91
2023-05-04T20:01:37.161Z,78.33
2023-05-04T20:04:06.390Z,77.58
2023-05-04T20:06:33.758Z,77.69
2023-05-04T20:09:01.388Z,77.27
2023-05-04T20:11:31.452Z,76.92
2023-05-04T20:13:58.916Z,77.05
2023-05-04T20:16:26.498Z,77.70
2023-05-04T20:18:54.080Z,77.03
2023-05-04T20:21:21.552Z,77.01
2023-05-04T20:23:49.378Z,77.20
2023-05-04T20:26:17.576Z,77.24
2023-05-04T20:28:53.338Z,77.31
2023-05-04T20:31:20.948Z,76.88
2023-05-04T20:33:48.232Z,77.22
2023-05-04T20:36:15.447Z,77.65
2023-05-04T20:38:42.810Z,77.35
2023-05-04T20:41:10.513Z,77.84
2023-05-04T20:43:37.909Z,78.19
2023-05-04T20:46:05.317Z,78.30
2023-05-04T20:48:32.887Z,78.84
2023-05-04T20:51:13.401Z,78.86
2023-05-04T20:53:42.191Z,79.36
2023-05-04T20:56:10.381Z,78.86
2023-05-04T20:58:37.510Z,78.50
2023-05-04T21:01:05.832Z,78.64
2023-05-04T21:03:33.735Z,78.83
2023-05-04T21:06:02.582Z,78.45
2023-05-04T21:08:29.844Z,78.95
2023-05-04T21:10:57.269Z,79.49
2023-05-04T21:13:24.664Z,79.08
2023-05-04T21:15:52.497Z,79.06
2023-05-04T21:18:20.096Z,79.71
2023-05-04T21:20:47.453Z,79.61
2023-05-04T21:23:14.921Z,79.94
2023-05-04T21:25:42.139Z,80.60
2023-05-04T21:28:09.761Z,80.90
2023-05-04T21:30:40.696Z,80.44
2023-05-04T21:33:08.101Z,80.61
2023-05-04T21:35:35.460Z,81.31
2023-05-04T21:38:02.776Z,81.28
2023-05-04T21:40:30.011Z,81.36
2023-05-04T21:42:57.260Z,81.03
2023-05-04T21:45:24.474Z,81.95
2023-05-04T21:47:52.069Z,81.60
2023-05-04T21:50:19.283Z,80.90
2023-05-04T21:52:46.628Z,80.62
2023-05-04T21:55:13.894Z,80.75
2023-05-04T21:57:41.383Z,80.73
2023-05-04T22:00:12.791Z,80.49
2023-05-04T22:02:40.118Z,80.48
2023-05-04T22:05:07.813Z,80.36
2023-05-04T22:07:36.600Z,80.35
2023-05-04T22:10:05.160Z,80.55
2023-05-04T22:12:32.412Z,80.25
2023-05-04T22:14:59.636Z,80.59
2023-05-04T22:17:27.192Z,80.82
2023-05-04T22:19:54.503Z,81.38
2023-05-04T22:22:21.764Z,81.38
2023-05-04T22:24:49.043Z,80.96
2023-05-04T22:27:16.451Z,81.00
2023-05-04T22:29:43.760Z,81.18
2023-05-04T22:32:11.103Z,81.96
2023-05-04T22:34:38.290Z,82.39
2023-05-04T22:37:05.503Z,81.72
2023-05-04T22:39:32.795Z,81.88
2023-05-04T22:42:00.227Z,81.83
2023-05-04T22:44:27.426Z,81.85
2023-05-04T22:46:54.594Z,82.43
2023-05-04T22:49:21.783Z,81.97
2023-05-04T22:51:49.056Z,82.01
2023-05-04T22:54:16.378Z,81.78
2023-05-04T22:56:43.569Z,81.86
2023-05-04T22:59:10.868Z,82.56
2023-05-04T23:01:43.012Z,82.34
2023-05-04T23:04:11.723Z,82.28
2023-05-04T23:06:39.456Z,82.15
2023-05-04T23:09:06.815Z,82.26
2023-05-04T23:11:34.038Z,82.22
2023-05-04T23:14:01.423Z,83.02
2023-05-04T23:16:28.668Z,82.73
2023-05-04T23:18:56.215Z,82.44
2023-05-04T23:21:23.407Z,82.17
2023-05-04T23:23:52.359Z,82.68
2023-05-04T23:26:19.629Z,82.65
2023-05-04T23:28:46.861Z,82.93
2023-05-04T23:31:14.082Z,82.75
2023-05-04T23:33:42.095Z,82.52
2023-05-04T23:36:09.410Z,82.67
2023-05-04T23:38:36.869Z,83.07
2023-05-04T23:41:04.680Z,83.19
2023-05-04T23:43:32.292Z,83.72
2023-05-04T23:46:01.458Z,83.48
2023-05-04T23:48:29.799Z,83.41
2023-05-04T23:50:59.091Z,83.54
2023-05-04T23:53:26.633Z,83.56
2023-05-04T23:56:01.938Z,83.52
2023-05-04T23:58:31.797Z,84.14
